sensor_id;sensor_type;location;lat;lon;timestamp;P1;durP1;ratioP1;P2;durP2;ratioP2
33010;SDS011;19370;48.562;9.196;2023-11-22T00:01:55;14.03;;;6.07;;
33010;SDS011;19370;48.562;9.196;2023-11-22T00:04:20;14.00;;;6.25;;
33010;SDS011;19370;48.562;9.196;2023-11-22T00:06:51;13.77;;;6.05;;
33010;SDS011;19370;48.562;9.196;2023-11-22T00:09:17;11.97;;;6.10;;
33010;SDS011;19370;48.562;9.196;2023-11-22T00:11:48;11.73;;;5.90;;
33010;SDS011;19370;48.562;9.196;2023-11-22T00:14:22;15.23;;;6.40;;
33010;SDS011;19370;48.562;9.196;2023-11-22T00:16:51;15.13;;;6.15;;
33010;SDS011;19370;48.562;9.196;2023-11-22T00:19:23;16.65;;;6.75;;
33010;SDS011;19370;48.562;9.196;2023-11-22T00:21:49;16.27;;;6.50;;
33010;SDS011;19370;48.562;9.196;2023-11-22T00:24:14;16.05;;;6.72;;
33010;SDS011;19370;48.562;9.196;2023-11-22T00:26:40;13.33;;;6.17;;
33010;SDS011;19370;48.562;9.196;2023-11-22T00:29:08;15.02;;;7.32;;
33010;SDS011;19370;48.562;9.196;2023-11-22T00:31:34;13.85;;;6.30;;
33010;SDS011;19370;48.562;9.196;2023-11-22T00:33:59;13.35;;;5.88;;
33010;SDS011;19370;48.562;9.196;2023-11-22T00:36:25;14.75;;;5.80;;
33010;SDS011;19370;48.562;9.196;2023-11-22T00:38:51;11.60;;;5.70;;
33010;SDS011;19370;48.562;9.196;2023-11-22T00:41:17;18.10;;;6.68;;
33010;SDS011;19370;48.562;9.196;2023-11-22T00:43:43;14.80;;;6.00;;
33010;SDS011;19370;48.562;9.196;2023-11-22T00:46:10;13.38;;;6.22;;
33010;SDS011;19370;48.562;9.196;2023-11-22T00:48:38;13.32;;;6.22;;
33010;SDS011;19370;48.562;9.196;2023-11-22T00:51:04;13.82;;;5.88;;
33010;SDS011;19370;48.562;9.196;2023-11-22T00:53:38;12.37;;;5.27;;
33010;SDS011;19370;48.562;9.196;2023-11-22T00:56:04;12.23;;;5.40;;
33010;SDS011;19370;48.562;9.196;2023-11-22T00:58:31;13.77;;;5.85;;
33010;SDS011;19370;48.562;9.196;2023-11-22T01:00:59;12.70;;;5.80;;
33010;SDS011;19370;48.562;9.196;2023-11-22T01:06:02;10.30;;;4.07;;
33010;SDS011;19370;48.562;9.196;2023-11-22T01:08:28;8.73;;;3.40;;
33010;SDS011;19370;48.562;9.196;2023-11-22T01:10:54;7.25;;;2.70;;
33010;SDS011;19370;48.562;9.196;2023-11-22T01:13:20;5.95;;;2.30;;
33010;SDS011;19370;48.562;9.196;2023-11-22T01:15:48;7.63;;;2.60;;
33010;SDS011;19370;48.562;9.196;2023-11-22T01:18:16;7.05;;;2.55;;
33010;SDS011;19370;48.562;9.196;2023-11-22T01:20:41;6.10;;;2.20;;
33010;SDS011;19370;48.562;9.196;2023-11-22T01:23:07;14.65;;;4.07;;
33010;SDS011;19370;48.562;9.196;2023-11-22T01:25:38;6.80;;;2.27;;
33010;SDS011;19370;48.562;9.196;2023-11-22T01:28:05;7.28;;;2.85;;
33010;SDS011;19370;48.562;9.196;2023-11-22T01:30:43;6.93;;;3.20;;
33010;SDS011;19370;48.562;9.196;2023-11-22T01:33:13;7.30;;;3.22;;
33010;SDS011;19370;48.562;9.196;2023-11-22T01:35:40;8.00;;;3.80;;
33010;SDS011;19370;48.562;9.196;2023-11-22T01:38:09;7.43;;;3.63;;
33010;SDS011;19370;48.562;9.196;2023-11-22T01:40:47;7.78;;;3.75;;
33010;SDS011;19370;48.562;9.196;2023-11-22T01:43:19;8.73;;;4.03;;
33010;SDS011;19370;48.562;9.196;2023-11-22T01:45:48;9.60;;;3.67;;
33010;SDS011;19370;48.562;9.196;2023-11-22T01:48:21;13.38;;;4.80;;
33010;SDS011;19370;48.562;9.196;2023-11-22T01:50:48;7.77;;;3.70;;
33010;SDS011;19370;48.562;9.196;2023-11-22T01:53:14;8.13;;;4.20;;
33010;SDS011;19370;48.562;9.196;2023-11-22T01:55:41;9.15;;;3.97;;
33010;SDS011;19370;48.562;9.196;2023-11-22T01:58:10;8.65;;;4.15;;
33010;SDS011;19370;48.562;9.196;2023-11-22T02:00:40;9.13;;;4.03;;
33010;SDS011;19370;48.562;9.196;2023-11-22T02:03:10;8.87;;;4.13;;
33010;SDS011;19370;48.562;9.196;2023-11-22T02:05:35;9.68;;;4.35;;
33010;SDS011;19370;48.562;9.196;2023-11-22T02:08:04;12.70;;;4.70;;
33010;SDS011;19370;48.562;9.196;2023-11-22T02:10:30;9.27;;;4.00;;
33010;SDS011;19370;48.562;9.196;2023-11-22T02:12:56;8.07;;;3.20;;
33010;SDS011;19370;48.562;9.196;2023-11-22T02:15:21;8.70;;;3.65;;
33010;SDS011;19370;48.562;9.196;2023-11-22T02:17:47;9.53;;;4.00;;
33010;SDS011;19370;48.562;9.196;2023-11-22T02:20:12;8.25;;;3.60;;
33010;SDS011;19370;48.562;9.196;2023-11-22T02:22:45;9.33;;;4.03;;
33010;SDS011;19370;48.562;9.196;2023-11-22T02:25:11;8.40;;;3.63;;
33010;SDS011;19370;48.562;9.196;2023-11-22T02:27:36;8.50;;;3.80;;
33010;SDS011;19370;48.562;9.196;2023-11-22T02:30:03;7.63;;;3.33;;
33010;SDS011;19370;48.562;9.196;2023-11-22T02:32:31;8.25;;;3.60;;
33010;SDS011;19370;48.562;9.196;2023-11-22T02:34:56;8.38;;;3.60;;
33010;SDS011;19370;48.562;9.196;2023-11-22T02:37:22;7.67;;;3.50;;
33010;SDS011;19370;48.562;9.196;2023-11-22T02:40:05;8.48;;;3.53;;
33010;SDS011;19370;48.562;9.196;2023-11-22T20:13:11;18.05;;;10.38;;
33010;SDS011;19370;48.562;9.196;2023-11-22T20:16:00;15.40;;;8.68;;
33010;SDS011;19370;48.562;9.196;2023-11-22T20:18:29;23.50;;;15.68;;
33010;SDS011;19370;48.562;9.196;2023-11-22T20:21:00;15.88;;;8.93;;
33010;SDS011;19370;48.562;9.196;2023-11-22T20:23:40;15.40;;;8.57;;
33010;SDS011;19370;48.562;9.196;2023-11-22T20:26:12;14.15;;;7.95;;
33010;SDS011;19370;48.562;9.196;2023-11-22T20:28:44;13.98;;;8.02;;
33010;SDS011;19370;48.562;9.196;2023-11-22T20:31:17;14.57;;;8.40;;
33010;SDS011;19370;48.562;9.196;2023-11-22T20:33:46;13.98;;;7.65;;
33010;SDS011;19370;48.562;9.196;2023-11-22T20:36:18;13.13;;;7.07;;
33010;SDS011;19370;48.562;9.196;2023-11-22T20:38:46;15.05;;;9.50;;
33010;SDS011;19370;48.562;9.196;2023-11-22T20:41:20;15.70;;;8.70;;
33010;SDS011;19370;48.562;9.196;2023-11-22T20:43:47;13.65;;;7.68;;
33010;SDS011;19370;48.562;9.196;2023-11-22T20:46:18;13.35;;;7.03;;
33010;SDS011;19370;48.562;9.196;2023-11-22T20:48:47;12.97;;;7.27;;
33010;SDS011;19370;48.562;9.196;2023-11-22T20:51:18;13.90;;;8.10;;
33010;SDS011;19370;48.562;9.196;2023-11-22T20:53:45;13.95;;;7.60;;
33010;SDS011;19370;48.562;9.196;2023-11-22T20:56:14;14.30;;;7.63;;
33010;SDS011;19370;48.562;9.196;2023-11-22T20:58:45;13.15;;;7.53;;
33010;SDS011;19370;48.562;9.196;2023-11-22T21:01:17;12.63;;;6.80;;
33010;SDS011;19370;48.562;9.196;2023-11-22T21:03:49;12.80;;;6.78;;
33010;SDS011;19370;48.562;9.196;2023-11-22T21:06:25;13.77;;;6.82;;
33010;SDS011;19370;48.562;9.196;2023-11-22T21:08:54;12.45;;;6.93;;
33010;SDS011;19370;48.562;9.196;2023-11-22T21:11:25;13.95;;;7.63;;
33010;SDS011;19370;48.562;9.196;2023-11-22T21:13:58;13.87;;;7.20;;
33010;SDS011;19370;48.562;9.196;2023-11-22T21:16:38;14.90;;;7.53;;
33010;SDS011;19370;48.562;9.196;2023-11-22T21:19:11;14.57;;;7.88;;
33010;SDS011;19370;48.562;9.196;2023-11-22T21:21:44;21.55;;;11.77;;
33010;SDS011;19370;48.562;9.196;2023-11-22T21:24:15;14.98;;;8.43;;
33010;SDS011;19370;48.562;9.196;2023-11-22T21:26:41;15.43;;;9.00;;
33010;SDS011;19370;48.562;9.196;2023-11-22T21:29:12;15.95;;;8.52;;
33010;SDS011;19370;48.562;9.196;2023-11-22T21:31:41;15.32;;;8.50;;
33010;SDS011;19370;48.562;9.196;2023-11-22T21:34:10;14.48;;;7.93;;
33010;SDS011;19370;48.562;9.196;2023-11-22T21:36:42;13.48;;;7.50;;
33010;SDS011;19370;48.562;9.196;2023-11-22T21:39:11;13.97;;;7.90;;
33010;SDS011;19370;48.562;9.196;2023-11-22T21:41:48;13.95;;;7.43;;
33010;SDS011;19370;48.562;9.196;2023-11-22T21:44:23;16.33;;;7.88;;
33010;SDS011;19370;48.562;9.196;2023-11-22T21:46:55;14.35;;;7.70;;
33010;SDS011;19370;48.562;9.196;2023-11-22T21:49:29;14.68;;;8.35;;
33010;SDS011;19370;48.562;9.196;2023-11-22T21:52:16;14.90;;;8.23;;
33010;SDS011;19370;48.562;9.196;2023-11-22T21:54:47;14.88;;;7.60;;
33010;SDS011;19370;48.562;9.196;2023-11-22T21:57:19;14.35;;;8.00;;
33010;SDS011;19370;48.562;9.196;2023-11-22T22:00:00;14.57;;;8.40;;
33010;SDS011;19370;48.562;9.196;2023-11-22T22:02:38;14.02;;;7.45;;
33010;SDS011;19370;48.562;9.196;2023-11-22T22:05:30;14.67;;;7.80;;
33010;SDS011;19370;48.562;9.196;2023-11-22T22:08:13;15.18;;;8.27;;
33010;SDS011;19370;48.562;9.196;2023-11-22T22:10:47;14.70;;;7.95;;
33010;SDS011;19370;48.562;9.196;2023-11-22T22:13:15;14.75;;;8.20;;
33010;SDS011;19370;48.562;9.196;2023-11-22T22:15:45;14.68;;;7.82;;
33010;SDS011;19370;48.562;9.196;2023-11-22T22:18:11;15.13;;;7.90;;
33010;SDS011;19370;48.562;9.196;2023-11-22T22:20:45;14.50;;;7.70;;
33010;SDS011;19370;48.562;9.196;2023-11-22T22:23:24;15.48;;;8.23;;
33010;SDS011;19370;48.562;9.196;2023-11-22T22:25:55;15.18;;;8.25;;
33010;SDS011;19370;48.562;9.196;2023-11-22T22:28:23;14.70;;;7.93;;
33010;SDS011;19370;48.562;9.196;2023-11-22T22:31:03;15.57;;;8.10;;
33010;SDS011;19370;48.562;9.196;2023-11-22T22:33:43;14.65;;;8.15;;
33010;SDS011;19370;48.562;9.196;2023-11-22T22:36:20;14.77;;;8.27;;
33010;SDS011;19370;48.562;9.196;2023-11-22T22:38:58;16.42;;;8.20;;
33010;SDS011;19370;48.562;9.196;2023-11-22T22:41:37;15.65;;;8.55;;
33010;SDS011;19370;48.562;9.196;2023-11-22T22:44:11;15.40;;;7.80;;
33010;SDS011;19370;48.562;9.196;2023-11-22T22:46:44;15.15;;;8.35;;
33010;SDS011;19370;48.562;9.196;2023-11-22T22:49:21;14.98;;;8.20;;
33010;SDS011;19370;48.562;9.196;2023-11-22T22:52:13;14.85;;;7.68;;
33010;SDS011;19370;48.562;9.196;2023-11-22T22:57:29;14.80;;;7.60;;
33010;SDS011;19370;48.562;9.196;2023-11-22T23:00:05;17.42;;;8.38;;
33010;SDS011;19370;48.562;9.196;2023-11-22T23:02:50;14.32;;;7.78;;
33010;SDS011;19370;48.562;9.196;2023-11-22T23:29:00;14.60;;;7.80;;
33010;SDS011;19370;48.562;9.196;2023-11-22T23:39:05;14.00;;;7.80;;
